sensor_id;sensor_type;location;lat;lon;timestamp;pressure;altitude;pressure_sealevel;temperature;humidity
40384;BME280;26097;42.366;23.818;2022-07-06T00:01:10;94215.91;;;17.95;100.00
40384;BME280;26097;42.366;23.818;2022-07-06T00:04:10;94192.63;;;17.90;100.00
40384;BME280;26097;42.366;23.818;2022-07-06T00:07:11;94181.56;;;17.78;100.00
40384;BME280;26097;42.366;23.818;2022-07-06T00:10:12;94172.47;;;17.73;100.00
40384;BME280;26097;42.366;23.818;2022-07-06T00:13:12;94158.78;;;17.69;100.00
40384;BME280;26097;42.366;23.818;2022-07-06T00:16:13;94131.91;;;17.65;100.00
40384;BME280;26097;42.366;23.818;2022-07-06T00:19:13;94116.75;;;17.59;100.00
40384;BME280;26097;42.366;23.818;2022-07-06T00:22:14;94098.44;;;17.58;100.00
40384;BME280;26097;42.366;23.818;2022-07-06T00:25:14;94082.97;;;17.63;100.00
40384;BME280;26097;42.366;23.818;2022-07-06T00:28:15;94077.88;;;17.61;100.00
40384;BME280;26097;42.366;23.818;2022-07-06T00:31:16;94074.72;;;17.58;100.00
40384;BME280;26097;42.366;23.818;2022-07-06T00:34:17;94072.91;;;17.58;100.00
40384;BME280;26097;42.366;23.818;2022-07-06T00:37:17;94061.03;;;17.54;100.00
40384;BME280;26097;42.366;23.818;2022-07-06T00:40:18;94058.56;;;17.52;100.00
40384;BME280;26097;42.366;23.818;2022-07-06T00:43:18;94053.63;;;17.49;100.00
40384;BME280;26097;42.366;23.818;2022-07-06T00:46:19;94054.44;;;17.50;100.00
40384;BME280;26097;42.366;23.818;2022-07-06T00:49:21;94058.56;;;17.52;100.00
40384;BME280;26097;42.366;23.818;2022-07-06T00:52:45;94058.72;;;17.51;100.00
40384;BME280;26097;42.366;23.818;2022-07-06T00:55:46;94059.06;;;17.48;100.00
40384;BME280;26097;42.366;23.818;2022-07-06T00:58:46;94068.75;;;17.47;100.00
40384;BME280;26097;42.366;23.818;2022-07-06T01:01:47;94064.34;;;17.56;100.00
40384;BME280;26097;42.366;23.818;2022-07-06T01:04:48;94061.88;;;17.54;100.00
40384;BME280;26097;42.366;23.818;2022-07-06T01:07:49;94059.84;;;17.40;100.00
40384;BME280;26097;42.366;23.818;2022-07-06T01:10:51;94056.22;;;17.41;100.00
40384;BME280;26097;42.366;23.818;2022-07-06T01:13:51;94056.41;;;17.48;100.00
40384;BME280;26097;42.366;23.818;2022-07-06T01:16:52;94061.22;;;17.52;100.00
40384;BME280;26097;42.366;23.818;2022-07-06T01:19:52;94058.53;;;17.44;100.00
40384;BME280;26097;42.366;23.818;2022-07-06T01:22:53;94062.75;;;17.28;100.00
40384;BME280;26097;42.366;23.818;2022-07-06T01:25:55;94070.63;;;17.20;100.00
40384;BME280;26097;42.366;23.818;2022-07-06T01:28:56;94080.16;;;17.13;100.00
40384;BME280;26097;42.366;23.818;2022-07-06T01:31:56;94078.78;;;17.09;100.00
40384;BME280;26097;42.366;23.818;2022-07-06T01:34:56;94081.91;;;17.04;100.00
40384;BME280;26097;42.366;23.818;2022-07-06T01:37:57;94081.69;;;16.97;100.00
40384;BME280;26097;42.366;23.818;2022-07-06T01:40:57;94083.59;;;16.87;100.00
40384;BME280;26097;42.366;23.818;2022-07-06T01:43:58;94090.47;;;16.80;100.00
40384;BME280;26097;42.366;23.818;2022-07-06T01:46:58;94096.66;;;16.70;100.00
40384;BME280;26097;42.366;23.818;2022-07-06T01:50:00;94092.44;;;16.60;100.00
40384;BME280;26097;42.366;23.818;2022-07-06T01:53:01;94106.22;;;16.53;100.00
40384;BME280;26097;42.366;23.818;2022-07-06T01:56:01;94102.69;;;16.45;100.00
40384;BME280;26097;42.366;23.818;2022-07-06T01:59:01;94106.94;;;16.37;100.00
40384;BME280;26097;42.366;23.818;2022-07-06T02:02:02;94110.53;;;16.36;100.00
40384;BME280;26097;42.366;23.818;2022-07-06T02:05:03;94104.53;;;16.26;100.00
40384;BME280;26097;42.366;23.818;2022-07-06T02:08:04;94111.19;;;16.20;100.00
40384;BME280;26097;42.366;23.818;2022-07-06T02:11:05;94113.16;;;16.18;100.00
40384;BME280;26097;42.366;23.818;2022-07-06T02:14:06;94117.06;;;16.14;100.00
40384;BME280;26097;42.366;23.818;2022-07-06T02:17:06;94124.22;;;16.04;100.00
40384;BME280;26097;42.366;23.818;2022-07-06T02:20:08;94118.56;;;15.98;100.00
40384;BME280;26097;42.366;23.818;2022-07-06T02:23:08;94115.56;;;15.93;100.00
40384;BME280;26097;42.366;23.818;2022-07-06T02:26:09;94116.66;;;15.91;100.00
40384;BME280;26097;42.366;23.818;2022-07-06T02:29:09;94120.84;;;15.83;100.00
40384;BME280;26097;42.366;23.818;2022-07-06T02:32:10;94124.44;;;15.82;100.00
40384;BME280;26097;42.366;23.818;2022-07-06T02:35:10;94123.91;;;15.79;100.00
40384;BME280;26097;42.366;23.818;2022-07-06T02:38:10;94121.88;;;15.73;100.00
40384;BME280;26097;42.366;23.818;2022-07-06T02:41:11;94121.22;;;15.70;100.00
40384;BME280;26097;42.366;23.818;2022-07-06T02:44:11;94119.56;;;15.69;100.00
40384;BME280;26097;42.366;23.818;2022-07-06T02:47:12;94113.56;;;15.77;100.00
40384;BME280;26097;42.366;23.818;2022-07-06T02:50:12;94107.91;;;15.72;100.00
40384;BME280;26097;42.366;23.818;2022-07-06T02:53:13;94111.00;;;15.67;100.00
40384;BME280;26097;42.366;23.818;2022-07-06T02:56:13;94112.78;;;15.67;100.00
40384;BME280;26097;42.366;23.818;2022-07-06T02:59:14;94105.97;;;15.74;100.00
40384;BME280;26097;42.366;23.818;2022-07-06T03:02:15;94097.41;;;15.72;100.00
40384;BME280;26097;42.366;23.818;2022-07-06T03:05:16;94102.66;;;15.72;100.00
40384;BME280;26097;42.366;23.818;2022-07-06T03:08:16;94099.53;;;15.87;100.00
40384;BME280;26097;42.366;23.818;2022-07-06T03:11:17;94101.69;;;16.01;100.00
40384;BME280;26097;42.366;23.818;2022-07-06T03:14:17;94097.47;;;16.08;100.00
40384;BME280;26097;42.366;23.818;2022-07-06T03:17:18;94111.00;;;16.13;100.00
40384;BME280;26097;42.366;23.818;2022-07-06T03:20:21;94103.78;;;16.16;100.00
40384;BME280;26097;42.366;23.818;2022-07-06T03:23:22;94120.91;;;16.20;100.00
40384;BME280;26097;42.366;23.818;2022-07-06T03:26:22;94123.91;;;16.25;100.00
40384;BME280;26097;42.366;23.818;2022-07-06T03:29:22;94128.13;;;16.36;100.00
40384;BME280;26097;42.366;23.818;2022-07-06T03:32:23;94125.09;;;16.49;100.00
40384;BME280;26097;42.366;23.818;2022-07-06T03:35:23;94125.19;;;16.57;100.00
40384;BME280;26097;42.366;23.818;2022-07-06T03:38:24;94118.31;;;16.64;100.00
40384;BME280;26097;42.366;23.818;2022-07-06T03:41:24;94112.91;;;16.66;100.00
40384;BME280;26097;42.366;23.818;2022-07-06T03:44:25;94110.09;;;16.67;100.00
40384;BME280;26097;42.366;23.818;2022-07-06T03:47:25;94115.75;;;16.73;100.00
40384;BME280;26097;42.366;23.818;2022-07-06T03:50:25;94102.63;;;16.81;100.00
40384;BME280;26097;42.366;23.818;2022-07-06T03:53:26;94107.59;;;16.84;100.00
40384;BME280;26097;42.366;23.818;2022-07-06T03:56:26;94103.66;;;16.88;100.00
40384;BME280;26097;42.366;23.818;2022-07-06T03:59:29;94109.13;;;16.95;100.00
40384;BME280;26097;42.366;23.818;2022-07-06T04:02:30;94114.31;;;17.05;100.00
40384;BME280;26097;42.366;23.818;2022-07-06T04:05:30;94121.25;;;17.06;100.00
40384;BME280;26097;42.366;23.818;2022-07-06T04:08:31;94126.00;;;17.02;100.00
40384;BME280;26097;42.366;23.818;2022-07-06T04:11:31;94131.47;;;17.09;100.00
40384;BME280;26097;42.366;23.818;2022-07-06T04:14:32;94135.06;;;17.08;100.00
40384;BME280;26097;42.366;23.818;2022-07-06T04:17:32;94142.00;;;17.09;100.00
40384;BME280;26097;42.366;23.818;2022-07-06T04:20:51;94140.06;;;17.11;100.00
40384;BME280;26097;42.366;23.818;2022-07-06T04:23:51;94140.06;;;17.11;100.00
40384;BME280;26097;42.366;23.818;2022-07-06T04:26:52;94151.06;;;17.06;100.00
40384;BME280;26097;42.366;23.818;2022-07-06T04:29:53;94146.41;;;17.00;100.00
40384;BME280;26097;42.366;23.818;2022-07-06T04:32:53;94146.56;;;16.98;100.00
40384;BME280;26097;42.366;23.818;2022-07-06T04:35:55;94136.84;;;16.99;100.00
40384;BME280;26097;42.366;23.818;2022-07-06T04:38:56;94137.25;;;17.12;100.00
40384;BME280;26097;42.366;23.818;2022-07-06T04:41:56;94136.81;;;17.25;100.00
40384;BME280;26097;42.366;23.818;2022-07-06T04:44:56;94135.59;;;17.46;100.00
40384;BME280;26097;42.366;23.818;2022-07-06T04:47:57;94139.97;;;17.64;100.00
40384;BME280;26097;42.366;23.818;2022-07-06T04:50:58;94142.34;;;17.75;100.00
40384;BME280;26097;42.366;23.818;2022-07-06T04:53:58;94148.00;;;17.89;100.00
40384;BME280;26097;42.366;23.818;2022-07-06T04:56:59;94148.38;;;18.02;100.00
40384;BME280;26097;42.366;23.818;2022-07-06T04:59:59;94143.78;;;18.12;100.00
40384;BME280;26097;42.366;23.818;2022-07-06T05:03:00;94155.38;;;18.36;100.00
40384;BME280;26097;42.366;23.818;2022-07-06T05:06:00;94158.50;;;18.48;100.00
40384;BME280;26097;42.366;23.818;2022-07-06T05:09:01;94155.56;;;18.60;100.00
40384;BME280;26097;42.366;23.818;2022-07-06T05:12:01;94162.47;;;18.69;100.00
40384;BME280;26097;42.366;23.818;2022-07-06T05:15:02;94168.75;;;18.84;100.00
40384;BME280;26097;42.366;23.818;2022-07-06T05:18:03;94168.94;;;19.08;100.00
40384;BME280;26097;42.366;23.818;2022-07-06T05:21:03;94166.25;;;19.33;100.00
40384;BME280;26097;42.366;23.818;2022-07-06T05:24:04;94166.56;;;19.38;99.86
40384;BME280;26097;42.366;23.818;2022-07-06T05:27:04;94166.88;;;19.43;99.14
40384;BME280;26097;42.366;23.818;2022-07-06T05:30:05;94172.31;;;19.50;99.49
40384;BME280;26097;42.366;23.818;2022-07-06T05:33:06;94177.59;;;19.50;99.53
40384;BME280;26097;42.366;23.818;2022-07-06T05:36:06;94174.94;;;19.50;99.87
40384;BME280;26097;42.366;23.818;2022-07-06T05:39:07;94187.28;;;19.74;97.69
40384;BME280;26097;42.366;23.818;2022-07-06T05:42:08;94193.56;;;19.65;97.96
40384;BME280;26097;42.366;23.818;2022-07-06T05:45:08;94188.47;;;19.63;96.41
40384;BME280;26097;42.366;23.818;2022-07-06T05:48:09;94187.59;;;19.79;97.21
40384;BME280;26097;42.366;23.818;2022-07-06T05:51:28;94198.50;;;19.76;96.26
40384;BME280;26097;42.366;23.818;2022-07-06T05:54:28;94200.16;;;19.86;97.02
40384;BME280;26097;42.366;23.818;2022-07-06T05:57:28;94193.22;;;19.76;95.74
40384;BME280;26097;42.366;23.818;2022-07-06T06:00:29;94185.59;;;19.81;95.57
40384;BME280;26097;42.366;23.818;2022-07-06T06:03:30;94193.53;;;19.81;93.13
40384;BME280;26097;42.366;23.818;2022-07-06T06:06:30;94201.00;;;19.78;94.55
40384;BME280;26097;42.366;23.818;2022-07-06T06:09:32;94192.84;;;19.96;93.89
40384;BME280;26097;42.366;23.818;2022-07-06T06:12:32;94198.16;;;19.88;92.90
40384;BME280;26097;42.366;23.818;2022-07-06T06:15:32;94189.78;;;20.16;92.76
40384;BME280;26097;42.366;23.818;2022-07-06T06:18:33;94188.75;;;20.25;93.41
40384;BME280;26097;42.366;23.818;2022-07-06T06:21:33;94191.81;;;20.05;92.36
40384;BME280;26097;42.366;23.818;2022-07-06T06:24:34;94199.00;;;20.20;90.91
40384;BME280;26097;42.366;23.818;2022-07-06T06:27:34;94190.91;;;20.21;90.67
40384;BME280;26097;42.366;23.818;2022-07-06T06:30:35;94180.47;;;20.28;88.21
40384;BME280;26097;42.366;23.818;2022-07-06T06:33:36;94174.47;;;20.34;88.03
40384;BME280;26097;42.366;23.818;2022-07-06T06:36:37;94174.00;;;20.54;88.66
40384;BME280;26097;42.366;23.818;2022-07-06T06:39:37;94175.16;;;20.51;85.71
40384;BME280;26097;42.366;23.818;2022-07-06T06:42:37;94180.00;;;20.48;87.68
40384;BME280;26097;42.366;23.818;2022-07-06T06:45:38;94175.75;;;20.38;85.24
40384;BME280;26097;42.366;23.818;2022-07-06T06:48:38;94176.38;;;20.49;87.58
40384;BME280;26097;42.366;23.818;2022-07-06T06:51:39;94172.59;;;20.43;86.40
40384;BME280;26097;42.366;23.818;2022-07-06T06:54:39;94173.84;;;20.24;84.56
40384;BME280;26097;42.366;23.818;2022-07-06T06:57:40;94172.09;;;20.16;83.95
40384;BME280;26097;42.366;23.818;2022-07-06T07:00:40;94161.03;;;20.12;84.71
40384;BME280;26097;42.366;23.818;2022-07-06T07:03:40;94162.59;;;20.22;86.11
40384;BME280;26097;42.366;23.818;2022-07-06T07:06:41;94150.69;;;20.26;84.72
40384;BME280;26097;42.366;23.818;2022-07-06T07:09:41;94159.88;;;20.15;85.26
40384;BME280;26097;42.366;23.818;2022-07-06T07:12:43;94160.28;;;20.27;83.48
40384;BME280;26097;42.366;23.818;2022-07-06T07:15:44;94159.28;;;20.28;84.19
40384;BME280;26097;42.366;23.818;2022-07-06T07:18:44;94154.44;;;20.32;83.94
40384;BME280;26097;42.366;23.818;2022-07-06T07:21:45;94150.00;;;20.32;84.44
40384;BME280;26097;42.366;23.818;2022-07-06T07:24:45;94155.41;;;20.39;83.86
40384;BME280;26097;42.366;23.818;2022-07-06T07:27:45;94154.47;;;20.55;83.75
40384;BME280;26097;42.366;23.818;2022-07-06T07:30:46;94148.47;;;20.61;84.03
40384;BME280;26097;42.366;23.818;2022-07-06T07:33:46;94151.28;;;20.60;83.46
40384;BME280;26097;42.366;23.818;2022-07-06T07:36:47;94160.81;;;20.69;83.05
40384;BME280;26097;42.366;23.818;2022-07-06T07:39:47;94137.97;;;20.68;82.18
40384;BME280;26097;42.366;23.818;2022-07-06T07:42:47;94137.28;;;20.74;80.84
40384;BME280;26097;42.366;23.818;2022-07-06T07:45:48;94138.09;;;20.75;81.64
40384;BME280;26097;42.366;23.818;2022-07-06T07:48:49;94146.94;;;20.90;81.78
40384;BME280;26097;42.366;23.818;2022-07-06T07:51:50;94145.72;;;21.16;81.77
40384;BME280;26097;42.366;23.818;2022-07-06T07:54:50;94137.50;;;21.41;81.14
40384;BME280;26097;42.366;23.818;2022-07-06T07:57:51;94132.38;;;21.54;80.04
40384;BME280;26097;42.366;23.818;2022-07-06T08:00:51;94138.63;;;21.62;80.03
40384;BME280;26097;42.366;23.818;2022-07-06T08:03:52;94144.91;;;21.61;78.37
40384;BME280;26097;42.366;23.818;2022-07-06T08:06:52;94148.56;;;21.60;78.54
40384;BME280;26097;42.366;23.818;2022-07-06T08:09:52;94148.88;;;21.65;78.28
40384;BME280;26097;42.366;23.818;2022-07-06T08:12:53;94148.25;;;21.78;76.55
40384;BME280;26097;42.366;23.818;2022-07-06T08:15:53;94144.28;;;21.89;75.35
40384;BME280;26097;42.366;23.818;2022-07-06T08:18:54;94137.84;;;21.98;77.01
40384;BME280;26097;42.366;23.818;2022-07-06T08:21:54;94144.09;;;22.05;76.29
40384;BME280;26097;42.366;23.818;2022-07-06T08:24:55;94139.66;;;22.13;75.72
40384;BME280;26097;42.366;23.818;2022-07-06T08:27:55;94140.13;;;22.16;76.55
40384;BME280;26097;42.366;23.818;2022-07-06T08:30:56;94148.03;;;22.31;75.47
40384;BME280;26097;42.366;23.818;2022-07-06T08:33:57;94152.59;;;22.37;73.73
40384;BME280;26097;42.366;23.818;2022-07-06T08:36:57;94147.28;;;22.37;75.32
40384;BME280;26097;42.366;23.818;2022-07-06T08:39:58;94139.56;;;22.58;74.96
40384;BME280;26097;42.366;23.818;2022-07-06T08:42:59;94143.53;;;22.68;71.97
40384;BME280;26097;42.366;23.818;2022-07-06T08:46:01;94134.94;;;22.66;72.48
40384;BME280;26097;42.366;23.818;2022-07-06T08:49:01;94134.63;;;22.76;70.67
40384;BME280;26097;42.366;23.818;2022-07-06T08:52:03;94145.31;;;22.83;71.90
40384;BME280;26097;42.366;23.818;2022-07-06T08:55:05;94144.72;;;22.88;73.32
40384;BME280;26097;42.366;23.818;2022-07-06T08:58:07;94132.72;;;22.92;71.67
40384;BME280;26097;42.366;23.818;2022-07-06T09:01:09;94136.63;;;22.96;71.17
40384;BME280;26097;42.366;23.818;2022-07-06T09:04:12;94133.00;;;23.04;70.49
40384;BME280;26097;42.366;23.818;2022-07-06T09:07:13;94135.31;;;23.14;70.95
40384;BME280;26097;42.366;23.818;2022-07-06T09:10:15;94130.00;;;23.14;72.16
40384;BME280;26097;42.366;23.818;2022-07-06T09:13:17;94125.44;;;23.29;70.07
40384;BME280;26097;42.366;23.818;2022-07-06T09:16:19;94148.16;;;23.32;68.17
40384;BME280;26097;42.366;23.818;2022-07-06T09:19:24;94144.97;;;23.43;70.48
40384;BME280;26097;42.366;23.818;2022-07-06T09:22:30;94138.81;;;23.43;70.30
40384;BME280;26097;42.366;23.818;2022-07-06T09:25:32;94129.97;;;23.77;70.01
40384;BME280;26097;42.366;23.818;2022-07-06T09:28:43;94134.38;;;23.57;67.86
40384;BME280;26097;42.366;23.818;2022-07-06T09:31:55;94125.47;;;23.71;68.92
40384;BME280;26097;42.366;23.818;2022-07-06T09:34:56;94132.50;;;23.86;68.97
40384;BME280;26097;42.366;23.818;2022-07-06T09:38:05;94127.69;;;24.09;68.82
40384;BME280;26097;42.366;23.818;2022-07-06T09:41:06;94113.38;;;24.10;69.54
40384;BME280;26097;42.366;23.818;2022-07-06T09:44:06;94118.94;;;24.29;68.49
40384;BME280;26097;42.366;23.818;2022-07-06T09:47:09;94111.97;;;24.28;66.69
40384;BME280;26097;42.366;23.818;2022-07-06T09:50:15;94113.00;;;24.20;64.59
40384;BME280;26097;42.366;23.818;2022-07-06T09:53:16;94115.44;;;24.15;66.49
40384;BME280;26097;42.366;23.818;2022-07-06T09:56:17;94107.34;;;24.57;67.49
40384;BME280;26097;42.366;23.818;2022-07-06T09:59:26;94105.47;;;24.37;67.36
40384;BME280;26097;42.366;23.818;2022-07-06T10:02:27;94101.97;;;24.44;64.18
40384;BME280;26097;42.366;23.818;2022-07-06T10:05:29;94093.03;;;24.78;64.75
40384;BME280;26097;42.366;23.818;2022-07-06T10:08:31;94103.47;;;25.00;62.94
40384;BME280;26097;42.366;23.818;2022-07-06T10:11:35;94087.25;;;24.75;61.54
40384;BME280;26097;42.366;23.818;2022-07-06T10:14:37;94090.38;;;24.99;61.17
40384;BME280;26097;42.366;23.818;2022-07-06T10:17:39;94095.09;;;24.97;60.65
40384;BME280;26097;42.366;23.818;2022-07-06T10:20:40;94084.00;;;24.93;61.32
40384;BME280;26097;42.366;23.818;2022-07-06T10:23:42;94087.00;;;25.50;61.28
40384;BME280;26097;42.366;23.818;2022-07-06T10:26:42;94098.25;;;25.66;63.99
40384;BME280;26097;42.366;23.818;2022-07-06T10:29:43;94085.50;;;25.75;59.50
40384;BME280;26097;42.366;23.818;2022-07-06T10:32:45;94089.22;;;25.67;59.41
40384;BME280;26097;42.366;23.818;2022-07-06T10:35:46;94085.94;;;25.65;59.01
40384;BME280;26097;42.366;23.818;2022-07-06T10:38:51;94097.25;;;25.53;58.83
40384;BME280;26097;42.366;23.818;2022-07-06T10:41:51;94076.91;;;25.66;59.82
40384;BME280;26097;42.366;23.818;2022-07-06T10:44:52;94079.00;;;25.50;59.82
40384;BME280;26097;42.366;23.818;2022-07-06T10:51:21;94076.00;;;25.86;60.33
40384;BME280;26097;42.366;23.818;2022-07-06T10:54:22;94074.94;;;26.00;56.81
40384;BME280;26097;42.366;23.818;2022-07-06T10:57:23;94069.97;;;26.04;58.71
40384;BME280;26097;42.366;23.818;2022-07-06T11:00:23;94077.22;;;26.67;58.96
40384;BME280;26097;42.366;23.818;2022-07-06T11:06:36;94076.16;;;25.98;56.69
40384;BME280;26097;42.366;23.818;2022-07-06T11:09:37;94075.09;;;26.05;56.24
40384;BME280;26097;42.366;23.818;2022-07-06T11:12:44;94077.50;;;26.14;57.58
40384;BME280;26097;42.366;23.818;2022-07-06T11:15:48;94069.69;;;26.26;57.87
40384;BME280;26097;42.366;23.818;2022-07-06T11:18:59;94071.34;;;26.27;56.04
40384;BME280;26097;42.366;23.818;2022-07-06T11:22:08;94069.28;;;26.22;53.63
40384;BME280;26097;42.366;23.818;2022-07-06T11:25:10;94074.09;;;26.45;56.00
40384;BME280;26097;42.366;23.818;2022-07-06T11:28:10;94056.91;;;26.92;55.78
40384;BME280;26097;42.366;23.818;2022-07-06T11:31:15;94066.94;;;26.97;53.66
40384;BME280;26097;42.366;23.818;2022-07-06T11:34:26;94061.22;;;26.61;53.18
40384;BME280;26097;42.366;23.818;2022-07-06T11:37:27;94062.50;;;27.09;56.15
40384;BME280;26097;42.366;23.818;2022-07-06T11:40:27;94052.28;;;26.99;55.96
40384;BME280;26097;42.366;23.818;2022-07-06T11:43:29;94054.25;;;26.60;56.70
40384;BME280;26097;42.366;23.818;2022-07-06T11:46:34;94050.66;;;26.73;55.03
40384;BME280;26097;42.366;23.818;2022-07-06T11:49:37;94050.38;;;26.81;54.92
40384;BME280;26097;42.366;23.818;2022-07-06T11:52:37;94045.31;;;26.98;52.96
40384;BME280;26097;42.366;23.818;2022-07-06T11:55:38;94041.63;;;26.42;54.71
40384;BME280;26097;42.366;23.818;2022-07-06T11:58:39;94048.25;;;26.32;55.05
40384;BME280;26097;42.366;23.818;2022-07-06T12:01:42;94037.41;;;26.59;55.20
40384;BME280;26097;42.366;23.818;2022-07-06T12:04:45;94034.34;;;26.81;55.31
40384;BME280;26097;42.366;23.818;2022-07-06T12:07:46;94036.03;;;26.75;54.27
40384;BME280;26097;42.366;23.818;2022-07-06T12:10:46;94042.69;;;26.66;54.16
40384;BME280;26097;42.366;23.818;2022-07-06T12:13:48;94023.88;;;26.54;56.21
40384;BME280;26097;42.366;23.818;2022-07-06T12:16:50;94031.84;;;26.86;55.61
40384;BME280;26097;42.366;23.818;2022-07-06T12:19:54;94026.56;;;27.42;53.95
40384;BME280;26097;42.366;23.818;2022-07-06T12:23:04;94035.94;;;27.33;54.77
40384;BME280;26097;42.366;23.818;2022-07-06T12:26:06;94028.56;;;27.09;52.29
40384;BME280;26097;42.366;23.818;2022-07-06T12:29:09;94026.94;;;27.27;53.09
40384;BME280;26097;42.366;23.818;2022-07-06T12:32:21;94035.94;;;27.14;53.82
40384;BME280;26097;42.366;23.818;2022-07-06T12:35:27;94023.09;;;27.42;54.09
40384;BME280;26097;42.366;23.818;2022-07-06T12:38:28;94030.94;;;27.36;53.39
40384;BME280;26097;42.366;23.818;2022-07-06T12:41:32;94028.75;;;27.08;54.17
40384;BME280;26097;42.366;23.818;2022-07-06T12:44:42;94026.28;;;27.32;52.91
40384;BME280;26097;42.366;23.818;2022-07-06T12:48:03;94012.00;;;27.38;52.56
40384;BME280;26097;42.366;23.818;2022-07-06T12:51:03;94012.72;;;27.45;52.35
40384;BME280;26097;42.366;23.818;2022-07-06T12:54:14;94019.25;;;27.49;52.52
40384;BME280;26097;42.366;23.818;2022-07-06T12:57:23;94015.69;;;27.00;52.90
40384;BME280;26097;42.366;23.818;2022-07-06T13:00:27;94005.28;;;27.47;53.60
40384;BME280;26097;42.366;23.818;2022-07-06T13:03:28;94011.69;;;27.28;54.33
40384;BME280;26097;42.366;23.818;2022-07-06T13:06:39;94027.56;;;27.04;54.03
40384;BME280;26097;42.366;23.818;2022-07-06T13:09:39;94024.13;;;26.71;56.66
40384;BME280;26097;42.366;23.818;2022-07-06T13:12:40;94020.53;;;26.84;56.04
40384;BME280;26097;42.366;23.818;2022-07-06T13:15:43;94017.47;;;26.80;56.63
40384;BME280;26097;42.366;23.818;2022-07-06T13:18:44;94021.97;;;26.87;56.32
40384;BME280;26097;42.366;23.818;2022-07-06T13:21:44;94026.63;;;27.17;53.81
40384;BME280;26097;42.366;23.818;2022-07-06T13:24:45;94028.34;;;27.48;53.56
40384;BME280;26097;42.366;23.818;2022-07-06T13:27:45;94023.28;;;27.21;54.43
40384;BME280;26097;42.366;23.818;2022-07-06T13:30:46;94029.47;;;27.22;54.13
40384;BME280;26097;42.366;23.818;2022-07-06T13:33:46;94021.53;;;27.34;54.63
40384;BME280;26097;42.366;23.818;2022-07-06T13:36:47;94005.00;;;27.18;54.67
40384;BME280;26097;42.366;23.818;2022-07-06T13:39:47;94002.72;;;27.59;54.62
40384;BME280;26097;42.366;23.818;2022-07-06T13:42:48;94006.06;;;27.55;51.75
40384;BME280;26097;42.366;23.818;2022-07-06T13:45:48;94002.19;;;27.32;53.69
40384;BME280;26097;42.366;23.818;2022-07-06T13:48:49;93994.25;;;27.44;54.50
40384;BME280;26097;42.366;23.818;2022-07-06T13:51:49;93995.50;;;27.41;53.12
40384;BME280;26097;42.366;23.818;2022-07-06T13:54:50;94005.00;;;27.37;52.86
40384;BME280;26097;42.366;23.818;2022-07-06T13:57:50;93992.00;;;27.59;52.37
40384;BME280;26097;42.366;23.818;2022-07-06T14:00:51;94001.06;;;27.58;53.46
40384;BME280;26097;42.366;23.818;2022-07-06T14:03:51;93991.66;;;27.56;53.27
40384;BME280;26097;42.366;23.818;2022-07-06T14:06:51;93997.56;;;27.39;53.20
40384;BME280;26097;42.366;23.818;2022-07-06T14:09:52;93989.03;;;27.49;53.74
40384;BME280;26097;42.366;23.818;2022-07-06T14:12:53;93997.13;;;27.79;53.50
40384;BME280;26097;42.366;23.818;2022-07-06T14:15:54;93995.41;;;28.16;51.56
40384;BME280;26097;42.366;23.818;2022-07-06T14:18:54;93999.97;;;28.27;51.21
40384;BME280;26097;42.366;23.818;2022-07-06T14:21:55;93999.03;;;27.91;50.52
40384;BME280;26097;42.366;23.818;2022-07-06T14:24:55;94001.13;;;27.70;49.74
40384;BME280;26097;42.366;23.818;2022-07-06T14:27:56;93998.56;;;27.63;49.94
40384;BME280;26097;42.366;23.818;2022-07-06T14:30:56;93993.75;;;27.54;50.03
40384;BME280;26097;42.366;23.818;2022-07-06T14:33:57;93998.38;;;27.40;51.29
40384;BME280;26097;42.366;23.818;2022-07-06T14:36:57;94002.63;;;27.29;51.33
40384;BME280;26097;42.366;23.818;2022-07-06T14:39:58;93993.41;;;27.43;51.37
40384;BME280;26097;42.366;23.818;2022-07-06T14:42:58;93995.94;;;27.38;51.46
40384;BME280;26097;42.366;23.818;2022-07-06T14:45:59;93995.63;;;27.28;50.71
40384;BME280;26097;42.366;23.818;2022-07-06T14:49:00;93994.91;;;27.20;50.73
40384;BME280;26097;42.366;23.818;2022-07-06T14:52:01;93990.06;;;27.11;52.21
40384;BME280;26097;42.366;23.818;2022-07-06T14:55:01;93984.91;;;27.46;50.01
40384;BME280;26097;42.366;23.818;2022-07-06T14:58:02;94007.97;;;27.29;50.38
40384;BME280;26097;42.366;23.818;2022-07-06T15:01:02;93994.28;;;27.00;50.71
40384;BME280;26097;42.366;23.818;2022-07-06T15:04:03;93987.16;;;27.31;52.13
40384;BME280;26097;42.366;23.818;2022-07-06T15:07:04;93988.38;;;27.54;51.76
40384;BME280;26097;42.366;23.818;2022-07-06T15:10:04;93993.41;;;27.06;51.07
40384;BME280;26097;42.366;23.818;2022-07-06T15:13:05;93987.75;;;26.96;50.20
40384;BME280;26097;42.366;23.818;2022-07-06T15:16:06;93994.75;;;26.97;50.96
40384;BME280;26097;42.366;23.818;2022-07-06T15:19:06;93990.25;;;26.90;50.58
40384;BME280;26097;42.366;23.818;2022-07-06T15:22:08;93992.28;;;26.95;49.58
40384;BME280;26097;42.366;23.818;2022-07-06T15:25:09;93989.84;;;26.93;48.97
40384;BME280;26097;42.366;23.818;2022-07-06T15:28:09;93983.09;;;26.84;49.89
40384;BME280;26097;42.366;23.818;2022-07-06T15:31:10;93998.97;;;26.79;49.47
40384;BME280;26097;42.366;23.818;2022-07-06T15:34:13;93987.84;;;26.82;49.96
40384;BME280;26097;42.366;23.818;2022-07-06T15:37:13;93990.38;;;26.77;49.73
40384;BME280;26097;42.366;23.818;2022-07-06T15:40:14;93983.75;;;26.79;49.78
40384;BME280;26097;42.366;23.818;2022-07-06T15:43:17;93981.03;;;26.86;49.96
40384;BME280;26097;42.366;23.818;2022-07-06T15:46:18;93983.50;;;26.62;50.30
40384;BME280;26097;42.366;23.818;2022-07-06T15:49:18;93990.69;;;26.04;51.27